Time;durP1;ratioP1;P1;durP2;ratioP2;P2;SDS_P1;SDS_P2;PMS_P1;PMS_P2;Temp;Humidity;BMP_temperature;BMP_pressure;BME280_temperature;BME280_humidity;BME280_pressure;Samples;Min_cycle;Max_cycle;Signal;HPM_P1;HPM_P2
2021/03/30 00:00:01;;;;;;;9.70;5.30;;;;;;;;;;5097897;28;20258;-79
2021/03/30 00:02:28;;;;;;;8.60;6.27;;;;;;;;;;5097529;28;20233;-78
2021/03/30 00:04:55;;;;;;;9.37;5.33;;;;;;;;;;5097398;28;20304;-78
2021/03/30 00:07:22;;;;;;;8.83;5.93;;;;;;;;;;5097606;28;20691;-78
2021/03/30 00:09:49;;;;;;;6.60;5.30;;;;;;;;;;5100874;28;20245;-77
2021/03/30 00:12:16;;;;;;;9.57;5.37;;;;;;;;;;5101002;28;20212;-79
2021/03/30 00:14:43;;;;;;;8.03;5.60;;;;;;;;;;5101057;28;20229;-78
2021/03/30 00:17:12;;;;;;;7.57;5.33;;;;;;;;;;5101290;28;20212;-77
2021/03/30 00:19:39;;;;;;;6.77;5.40;;;;;;;;;;5101728;28;20208;-79
2021/03/30 00:22:06;;;;;;;9.30;5.07;;;;;;;;;;5101187;28;20631;-78
2021/03/30 00:24:33;;;;;;;10.73;5.53;;;;;;;;;;5120448;28;20270;-78
2021/03/30 00:27:00;;;;;;;7.77;5.60;;;;;;;;;;5121299;28;20607;-78
2021/03/30 00:29:27;;;;;;;9.63;5.70;;;;;;;;;;5121301;28;20286;-77
2021/03/30 00:31:54;;;;;;;8.53;5.17;;;;;;;;;;5109142;28;20248;-78
2021/03/30 00:34:22;;;;;;;8.47;5.43;;;;;;;;;;5103641;28;20289;-78
2021/03/30 00:36:49;;;;;;;6.87;5.13;;;;;;;;;;5108609;28;20263;-79
2021/03/30 00:39:17;;;;;;;7.93;5.20;;;;;;;;;;5101122;28;20240;-78
2021/03/30 00:41:44;;;;;;;7.17;5.50;;;;;;;;;;5100772;28;20216;-78
2021/03/30 00:44:11;;;;;;;8.43;5.93;;;;;;;;;;5100960;28;20197;-78
2021/03/30 00:46:39;;;;;;;8.47;6.07;;;;;;;;;;5113334;28;20675;-78
2021/03/30 00:49:06;;;;;;;10.23;6.00;;;;;;;;;;5100709;28;20677;-77
2021/03/30 00:51:34;;;;;;;8.47;6.03;;;;;;;;;;5100667;28;20209;-78
2021/03/30 00:54:01;;;;;;;10.00;5.83;;;;;;;;;;5100698;28;20271;-77
2021/03/30 00:56:28;;;;;;;9.13;6.10;;;;;;;;;;5100403;28;20271;-78
2021/03/30 00:58:56;;;;;;;10.63;6.13;;;;;;;;;;5101074;28;20233;-79
2021/03/30 01:01:22;;;;;;;11.77;5.67;;;;;;;;;;5100364;28;20300;-79
2021/03/30 01:03:49;;;;;;;8.73;5.23;;;;;;;;;;5100723;28;20233;-78
2021/03/30 01:06:16;;;;;;;8.60;4.93;;;;;;;;;;5100444;28;20261;-79
2021/03/30 01:08:59;;;;;;;8.43;5.53;;;;;;;;;;5100548;28;20265;-79
2021/03/30 01:11:33;;;;;;;9.97;6.17;;;;;;;;;;5099828;28;20697;-79
2021/03/30 01:14:09;;;;;;;9.63;5.53;;;;;;;;;;5100045;28;20655;-79
2021/03/30 01:16:38;;;;;;;8.33;5.90;;;;;;;;;;5100366;28;20201;-79
2021/03/30 01:19:10;;;;;;;10.23;5.13;;;;;;;;;;5100332;28;20699;-79
2021/03/30 01:21:56;;;;;;;7.97;5.53;;;;;;;;;;5107567;28;20288;-78
2021/03/30 01:24:26;;;;;;;9.30;5.70;;;;;;;;;;5120512;28;20282;-79
2021/03/30 01:26:57;;;;;;;7.57;5.13;;;;;;;;;;5119007;28;20620;-78
2021/03/30 01:29:39;;;;;;;11.97;5.67;;;;;;;;;;5112518;28;20312;-78
2021/03/30 01:32:07;;;;;;;10.20;5.67;;;;;;;;;;5110296;28;20279;-78
2021/03/30 01:34:35;;;;;;;10.27;5.63;;;;;;;;;;5112962;28;20303;-79
2021/03/30 01:37:03;;;;;;;7.83;5.10;;;;;;;;;;5111649;28;20240;-79
2021/03/30 01:39:31;;;;;;;9.37;5.27;;;;;;;;;;5112801;28;20233;-78
2021/03/30 01:41:58;;;;;;;10.47;5.70;;;;;;;;;;5111631;28;20197;-78
2021/03/30 01:44:26;;;;;;;6.60;5.47;;;;;;;;;;5110405;28;20209;-78
2021/03/30 01:46:54;;;;;;;8.60;5.17;;;;;;;;;;5112178;28;20703;-79
2021/03/30 01:49:23;;;;;;;7.33;4.87;;;;;;;;;;5108967;28;20225;-78
2021/03/30 01:51:51;;;;;;;8.13;5.40;;;;;;;;;;5108899;28;20640;-78
2021/03/30 01:54:18;;;;;;;8.97;5.00;;;;;;;;;;5108909;28;20596;-78
2021/03/30 01:56:46;;;;;;;7.33;5.00;;;;;;;;;;5111011;28;20203;-78
2021/03/30 01:59:15;;;;;;;9.73;5.33;;;;;;;;;;5109180;28;20212;-78
2021/03/30 02:01:44;;;;;;;8.53;5.60;;;;;;;;;;5116678;28;20637;-79
2021/03/30 02:04:13;;;;;;;11.83;5.47;;;;;;;;;;5119966;28;20224;-79
2021/03/30 02:06:41;;;;;;;11.67;5.73;;;;;;;;;;5119532;28;20553;-79
2021/03/30 02:09:12;;;;;;;8.87;5.43;;;;;;;;;;5119782;28;20271;-79
2021/03/30 02:11:43;;;;;;;8.93;5.57;;;;;;;;;;5119168;28;20613;-78
2021/03/30 02:14:12;;;;;;;9.57;5.80;;;;;;;;;;5119460;28;20288;-79
2021/03/30 02:16:40;;;;;;;10.00;6.63;;;;;;;;;;5119393;28;20296;-79
2021/03/30 02:19:10;;;;;;;6.73;5.40;;;;;;;;;;5119449;28;20201;-78
2021/03/30 02:21:42;;;;;;;11.03;5.73;;;;;;;;;;5119538;28;20288;-79
2021/03/30 02:24:10;;;;;;;12.57;5.33;;;;;;;;;;5119364;28;20260;-78
2021/03/30 02:26:40;;;;;;;11.37;5.90;;;;;;;;;;5118820;28;20205;-78
2021/03/30 02:29:09;;;;;;;12.37;5.67;;;;;;;;;;5118752;28;20726;-79
2021/03/30 02:31:37;;;;;;;7.23;5.17;;;;;;;;;;5109051;28;20261;-77
2021/03/30 02:34:05;;;;;;;8.47;5.50;;;;;;;;;;5098430;28;20282;-80
2021/03/30 02:36:33;;;;;;;6.63;5.57;;;;;;;;;;5108359;28;20235;-80
2021/03/30 02:39:05;;;;;;;8.90;5.60;;;;;;;;;;5098521;28;20299;-79
2021/03/30 02:41:33;;;;;;;9.70;5.73;;;;;;;;;;5098240;28;20261;-79
2021/03/30 02:44:00;;;;;;;8.73;5.13;;;;;;;;;;5098596;28;20209;-79
2021/03/30 02:46:28;;;;;;;11.53;5.53;;;;;;;;;;5109656;28;20209;-79
2021/03/30 02:48:56;;;;;;;10.33;5.37;;;;;;;;;;5099820;28;20707;-79
2021/03/30 02:51:23;;;;;;;8.77;5.93;;;;;;;;;;5098550;28;20288;-79
2021/03/30 02:53:52;;;;;;;9.27;5.17;;;;;;;;;;5098354;28;20313;-79
2021/03/30 02:56:21;;;;;;;11.47;5.43;;;;;;;;;;5098114;28;20225;-78
2021/03/30 02:58:48;;;;;;;9.33;4.70;;;;;;;;;;5098195;28;20661;-78
2021/03/30 03:01:15;;;;;;;7.17;5.33;;;;;;;;;;5098714;28;20229;-79
2021/03/30 03:03:43;;;;;;;6.47;5.00;;;;;;;;;;5104847;28;20691;-79
2021/03/30 03:06:11;;;;;;;9.17;4.77;;;;;;;;;;5118659;28;20288;-79
2021/03/30 03:08:38;;;;;;;8.47;5.10;;;;;;;;;;5118935;28;20209;-79
2021/03/30 03:11:05;;;;;;;9.03;5.67;;;;;;;;;;5118464;28;20244;-79
2021/03/30 03:13:33;;;;;;;8.07;5.27;;;;;;;;;;5118618;28;20267;-78
2021/03/30 03:16:00;;;;;;;10.23;5.53;;;;;;;;;;5118282;28;20324;-78
2021/03/30 03:18:28;;;;;;;8.93;4.93;;;;;;;;;;5118706;28;20291;-78
2021/03/30 03:20:55;;;;;;;7.27;5.33;;;;;;;;;;5118534;28;20381;-79
2021/03/30 03:23:23;;;;;;;9.37;5.20;;;;;;;;;;5118635;28;20197;-79
2021/03/30 03:25:50;;;;;;;12.77;5.13;;;;;;;;;;5118168;28;20224;-79
2021/03/30 03:28:17;;;;;;;6.90;5.00;;;;;;;;;;5117931;28;20287;-79
2021/03/30 03:30:46;;;;;;;13.07;6.03;;;;;;;;;;5115306;28;20228;-79
2021/03/30 03:33:14;;;;;;;9.43;5.73;;;;;;;;;;5098013;28;20277;-78
2021/03/30 03:35:42;;;;;;;8.63;5.60;;;;;;;;;;5108260;28;20218;-79
2021/03/30 03:38:12;;;;;;;9.37;5.27;;;;;;;;;;5098174;28;20255;-79
2021/03/30 03:40:39;;;;;;;9.37;5.37;;;;;;;;;;5097857;28;20215;-79
2021/03/30 03:43:06;;;;;;;7.57;5.10;;;;;;;;;;5100165;28;20237;-79
2021/03/30 03:45:33;;;;;;;9.77;5.57;;;;;;;;;;5104869;28;20678;-78
2021/03/30 03:48:01;;;;;;;10.33;5.67;;;;;;;;;;5110919;28;20729;-79
2021/03/30 03:50:28;;;;;;;11.53;5.30;;;;;;;;;;5101948;28;20289;-80
2021/03/30 03:52:55;;;;;;;11.40;6.20;;;;;;;;;;5102005;28;20295;-79
2021/03/30 03:55:22;;;;;;;7.77;5.70;;;;;;;;;;5101750;28;20236;-79
2021/03/30 03:57:51;;;;;;;9.57;5.37;;;;;;;;;;5101371;28;20205;-80
2021/03/30 04:00:19;;;;;;;9.80;5.37;;;;;;;;;;5101798;28;20284;-79
2021/03/30 04:02:47;;;;;;;9.97;5.83;;;;;;;;;;5101812;28;20273;-79
2021/03/30 04:05:16;;;;;;;11.80;6.20;;;;;;;;;;5101368;28;20313;-79
2021/03/30 04:07:46;;;;;;;8.97;5.93;;;;;;;;;;5101686;28;20244;-78
2021/03/30 04:10:16;;;;;;;8.47;5.77;;;;;;;;;;5108746;28;20587;-79
2021/03/30 04:12:43;;;;;;;13.13;6.20;;;;;;;;;;5121793;28;20287;-79
2021/03/30 04:15:11;;;;;;;9.27;5.90;;;;;;;;;;5121949;28;20295;-79
2021/03/30 04:17:42;;;;;;;7.53;5.63;;;;;;;;;;5122098;28;20242;-79
2021/03/30 04:20:10;;;;;;;10.17;5.60;;;;;;;;;;5121651;28;20291;-78
2021/03/30 04:22:38;;;;;;;12.83;5.50;;;;;;;;;;5121507;28;20205;-79
2021/03/30 04:25:06;;;;;;;7.53;5.60;;;;;;;;;;5111800;28;20725;-78
2021/03/30 04:27:33;;;;;;;8.60;5.80;;;;;;;;;;5100564;28;20570;-79
2021/03/30 04:30:02;;;;;;;9.93;5.37;;;;;;;;;;5109127;28;20240;-79
2021/03/30 04:32:29;;;;;;;10.87;5.73;;;;;;;;;;5104144;28;20284;-79
2021/03/30 04:34:56;;;;;;;8.70;5.40;;;;;;;;;;5108345;28;20307;-78
2021/03/30 04:37:23;;;;;;;9.80;5.30;;;;;;;;;;5103626;28;20241;-79
2021/03/30 04:39:51;;;;;;;11.07;6.00;;;;;;;;;;5100952;28;20646;-78
2021/03/30 04:42:18;;;;;;;10.40;5.50;;;;;;;;;;5100643;28;20271;-78
2021/03/30 04:44:44;;;;;;;13.67;6.47;;;;;;;;;;5100956;28;20257;-78
2021/03/30 04:47:14;;;;;;;8.97;5.60;;;;;;;;;;5113395;28;20205;-77
2021/03/30 04:49:41;;;;;;;11.73;6.53;;;;;;;;;;5107360;28;20300;-78
2021/03/30 04:52:08;;;;;;;8.30;5.53;;;;;;;;;;5112101;28;20237;-78
2021/03/30 04:54:35;;;;;;;8.37;5.77;;;;;;;;;;5111471;28;20868;-74
2021/03/30 04:57:03;;;;;;;10.47;6.60;;;;;;;;;;5111597;28;20202;-75
2021/03/30 04:59:30;;;;;;;10.47;6.47;;;;;;;;;;5112620;27;20224;-74
2021/03/30 05:01:57;;;;;;;10.93;6.30;;;;;;;;;;5114583;28;20244;-74
2021/03/30 05:04:24;;;;;;;7.33;5.20;;;;;;;;;;5111052;28;20213;-75
2021/03/30 05:06:51;;;;;;;7.17;5.37;;;;;;;;;;5112086;28;20229;-74
2021/03/30 05:09:18;;;;;;;8.43;6.00;;;;;;;;;;5117860;28;20197;-74
2021/03/30 05:11:45;;;;;;;8.10;5.97;;;;;;;;;;5120441;28;20211;-74
2021/03/30 05:14:13;;;;;;;10.60;6.17;;;;;;;;;;5120368;28;20737;-74
2021/03/30 05:16:40;;;;;;;14.83;6.23;;;;;;;;;;5120397;28;20241;-74
2021/03/30 05:19:07;;;;;;;10.80;5.97;;;;;;;;;;5120728;28;20297;-75
2021/03/30 05:21:34;;;;;;;10.53;5.70;;;;;;;;;;5107345;27;20228;-77
2021/03/30 05:24:01;;;;;;;12.17;6.17;;;;;;;;;;5117275;28;20659;-76
2021/03/30 05:26:28;;;;;;;10.83;6.03;;;;;;;;;;5115760;28;20651;-74
2021/03/30 05:28:55;;;;;;;7.03;5.90;;;;;;;;;;5102817;28;20728;-75
2021/03/30 05:31:23;;;;;;;14.77;6.03;;;;;;;;;;5117689;28;20280;-76
2021/03/30 05:33:50;;;;;;;9.43;5.93;;;;;;;;;;5111637;28;20691;-76
2021/03/30 05:36:17;;;;;;;9.87;6.30;;;;;;;;;;5117048;28;20790;-76
2021/03/30 05:38:44;;;;;;;8.50;6.40;;;;;;;;;;5119986;28;20563;-78
2021/03/30 05:41:11;;;;;;;8.17;5.90;;;;;;;;;;5117856;28;20288;-79
2021/03/30 05:43:38;;;;;;;9.87;6.87;;;;;;;;;;5117695;28;20204;-79
2021/03/30 05:46:06;;;;;;;9.67;5.90;;;;;;;;;;5105644;28;20652;-79
2021/03/30 05:48:34;;;;;;;8.77;6.13;;;;;;;;;;5114069;27;20284;-77
2021/03/30 05:51:01;;;;;;;9.47;6.23;;;;;;;;;;5115541;28;20329;-79
2021/03/30 05:53:28;;;;;;;17.23;6.80;;;;;;;;;;5116918;28;20201;-76
2021/03/30 05:55:58;;;;;;;9.20;6.50;;;;;;;;;;5117219;28;20256;-75
2021/03/30 05:58:26;;;;;;;12.83;6.50;;;;;;;;;;5102143;28;20209;-75
2021/03/30 06:00:56;;;;;;;11.80;6.53;;;;;;;;;;5112994;28;20224;-77
2021/03/30 06:03:25;;;;;;;10.97;6.30;;;;;;;;;;5114821;28;20224;-76
2021/03/30 06:05:54;;;;;;;11.87;6.47;;;;;;;;;;5111656;28;20221;-76
2021/03/30 06:08:22;;;;;;;11.20;6.50;;;;;;;;;;5113419;28;20204;-76
2021/03/30 06:10:51;;;;;;;11.43;6.07;;;;;;;;;;5111792;28;20280;-74
2021/03/30 06:13:34;;;;;;;13.63;6.43;;;;;;;;;;5099267;28;20201;-77
2021/03/30 06:16:16;;;;;;;12.13;6.53;;;;;;;;;;5108673;28;20229;-77
2021/03/30 06:18:43;;;;;;;13.20;6.67;;;;;;;;;;5098101;28;20737;-78
2021/03/30 06:21:16;;;;;;;17.47;7.30;;;;;;;;;;5102105;28;20227;-79
2021/03/30 06:23:43;;;;;;;16.77;7.20;;;;;;;;;;5106472;28;20202;-77
2021/03/30 06:26:16;;;;;;;13.43;7.27;;;;;;;;;;5097911;28;20241;-77
2021/03/30 06:28:43;;;;;;;14.33;7.30;;;;;;;;;;5105799;28;20211;-76
2021/03/30 06:31:14;;;;;;;13.03;6.73;;;;;;;;;;5112601;28;20244;-77
2021/03/30 06:33:45;;;;;;;12.33;7.70;;;;;;;;;;5118685;28;20208;-77
2021/03/30 06:36:21;;;;;;;15.03;7.60;;;;;;;;;;5102505;28;20222;-76
2021/03/30 06:38:50;;;;;;;18.93;7.43;;;;;;;;;;5097911;28;20213;-77
2021/03/30 06:41:35;;;;;;;15.37;7.83;;;;;;;;;;5097664;28;20215;-78
2021/03/30 06:46:52;;;;;;;15.87;7.70;;;;;;;;;;5101874;28;20661;-77
2021/03/30 06:49:20;;;;;;;12.47;7.20;;;;;;;;;;5111717;28;20206;-77
2021/03/30 06:51:48;;;;;;;15.33;7.13;;;;;;;;;;5109284;28;20205;-77
2021/03/30 06:54:16;;;;;;;14.77;7.70;;;;;;;;;;5118325;28;20221;-79
2021/03/30 06:56:47;;;;;;;15.90;7.97;;;;;;;;;;5117761;27;20565;-77
2021/03/30 06:59:14;;;;;;;15.30;8.80;;;;;;;;;;5115517;28;20284;-79
2021/03/30 07:01:42;;;;;;;17.23;8.20;;;;;;;;;;5111396;28;20205;-78
2021/03/30 07:04:10;;;;;;;14.33;8.10;;;;;;;;;;5110445;28;20201;-78
2021/03/30 07:06:37;;;;;;;10.87;7.57;;;;;;;;;;5104637;28;20644;-77
2021/03/30 07:09:07;;;;;;;12.90;7.37;;;;;;;;;;5097872;28;20212;-77
2021/03/30 07:11:37;;;;;;;10.90;7.03;;;;;;;;;;5097321;28;20205;-77
2021/03/30 07:14:04;;;;;;;10.43;6.43;;;;;;;;;;5097458;28;20221;-77
2021/03/30 07:16:33;;;;;;;9.90;6.03;;;;;;;;;;5097428;28;20237;-77
2021/03/30 07:19:02;;;;;;;9.30;4.60;;;;;;;;;;5097511;28;20202;-78
2021/03/30 07:21:32;;;;;;;9.90;4.97;;;;;;;;;;5099990;28;20213;-78
2021/03/30 07:24:03;;;;;;;8.20;5.53;;;;;;;;;;5117953;28;20246;-78
2021/03/30 07:26:39;;;;;;;9.17;4.67;;;;;;;;;;5100052;28;20683;-77
2021/03/30 07:29:08;;;;;;;8.87;4.27;;;;;;;;;;5097844;28;20233;-77
2021/03/30 07:31:38;;;;;;;6.50;4.57;;;;;;;;;;5098778;28;20205;-77
2021/03/30 07:34:07;;;;;;;6.07;4.37;;;;;;;;;;5097509;28;20260;-75
2021/03/30 07:36:38;;;;;;;8.13;5.17;;;;;;;;;;5120288;28;20655;-77
2021/03/30 07:39:07;;;;;;;8.70;5.27;;;;;;;;;;5128505;28;20207;-76
2021/03/30 07:41:35;;;;;;;14.23;4.97;;;;;;;;;;5133401;27;20204;-78
2021/03/30 07:44:05;;;;;;;9.60;4.67;;;;;;;;;;5121731;28;20594;-77
2021/03/30 07:46:33;;;;;;;6.47;4.10;;;;;;;;;;5118283;28;20686;-78
2021/03/30 07:49:02;;;;;;;9.77;4.83;;;;;;;;;;5117362;28;20208;-78
2021/03/30 07:51:34;;;;;;;8.47;5.00;;;;;;;;;;5131342;28;20266;-78
2021/03/30 07:54:11;;;;;;;9.10;4.60;;;;;;;;;;5134770;27;20218;-78
2021/03/30 07:56:51;;;;;;;9.17;4.90;;;;;;;;;;5121124;27;20288;-77
2021/03/30 07:59:37;;;;;;;10.13;4.80;;;;;;;;;;5113573;28;20231;-78
2021/03/30 08:02:05;;;;;;;9.23;5.77;;;;;;;;;;5116267;28;20258;-78
2021/03/30 08:04:32;;;;;;;8.83;4.67;;;;;;;;;;5117163;28;20711;-77
2021/03/30 08:06:59;;;;;;;11.70;6.23;;;;;;;;;;5117518;28;20238;-78
2021/03/30 08:09:27;;;;;;;16.17;6.33;;;;;;;;;;5117576;28;20201;-78
2021/03/30 08:11:55;;;;;;;8.93;5.30;;;;;;;;;;5116980;28;20209;-78
2021/03/30 08:14:39;;;;;;;12.37;5.83;;;;;;;;;;5100679;28;20237;-79
2021/03/30 08:17:20;;;;;;;10.30;6.00;;;;;;;;;;5096883;28;20216;-78
2021/03/30 08:19:54;;;;;;;13.77;6.40;;;;;;;;;;5104281;28;20700;-79
2021/03/30 08:22:23;;;;;;;19.37;6.93;;;;;;;;;;5117202;28;20208;-78
2021/03/30 08:24:55;;;;;;;20.23;7.00;;;;;;;;;;5116877;28;20221;-78
2021/03/30 08:27:38;;;;;;;11.10;6.90;;;;;;;;;;5116929;28;20205;-78
2021/03/30 08:30:14;;;;;;;12.33;6.17;;;;;;;;;;5119035;28;20229;-78
2021/03/30 08:32:45;;;;;;;11.93;5.83;;;;;;;;;;5101723;28;20211;-78
2021/03/30 08:35:14;;;;;;;10.87;4.87;;;;;;;;;;5109965;28;20633;-78
2021/03/30 08:37:44;;;;;;;10.03;5.23;;;;;;;;;;5110017;28;20279;-78
2021/03/30 08:40:26;;;;;;;10.77;5.10;;;;;;;;;;5120820;28;20204;-79
2021/03/30 08:42:55;;;;;;;10.67;4.47;;;;;;;;;;5107487;28;20209;-78
2021/03/30 08:45:22;;;;;;;8.93;5.13;;;;;;;;;;5120357;28;20224;-79
2021/03/30 08:47:50;;;;;;;8.57;5.03;;;;;;;;;;5110030;28;20255;-78
2021/03/30 08:50:22;;;;;;;9.90;4.30;;;;;;;;;;5100098;28;20582;-79
2021/03/30 08:52:52;;;;;;;6.03;4.23;;;;;;;;;;5099858;28;20216;-78
2021/03/30 08:55:25;;;;;;;9.53;4.97;;;;;;;;;;5100416;27;20585;-79
2021/03/30 08:57:52;;;;;;;7.03;3.90;;;;;;;;;;5099787;28;20239;-78
2021/03/30 09:00:21;;;;;;;8.83;4.13;;;;;;;;;;5106958;28;20295;-78
2021/03/30 09:02:59;;;;;;;12.43;4.30;;;;;;;;;;5120115;28;20201;-78
2021/03/30 09:05:26;;;;;;;6.27;4.17;;;;;;;;;;5111574;28;20225;-79
2021/03/30 09:07:54;;;;;;;6.30;4.20;;;;;;;;;;5099893;28;20661;-77
2021/03/30 09:10:21;;;;;;;5.67;3.40;;;;;;;;;;5099696;28;20213;-77
2021/03/30 09:12:48;;;;;;;4.53;3.33;;;;;;;;;;5108612;28;20284;-78
2021/03/30 09:15:16;;;;;;;9.33;3.97;;;;;;;;;;5119846;28;20293;-78
2021/03/30 09:17:56;;;;;;;6.43;3.77;;;;;;;;;;5120157;28;20213;-76
2021/03/30 09:20:25;;;;;;;7.47;4.07;;;;;;;;;;5119898;28;20215;-76
2021/03/30 09:22:54;;;;;;;7.17;3.20;;;;;;;;;;5112285;28;20212;-78
2021/03/30 09:25:29;;;;;;;8.50;4.50;;;;;;;;;;5114153;28;20723;-77
2021/03/30 09:27:57;;;;;;;8.83;3.73;;;;;;;;;;5099481;28;20239;-78
2021/03/30 09:30:25;;;;;;;11.10;4.37;;;;;;;;;;5103291;28;20259;-78
2021/03/30 09:32:53;;;;;;;6.60;3.63;;;;;;;;;;5099422;28;20205;-78
2021/03/30 09:35:21;;;;;;;6.23;3.40;;;;;;;;;;5101869;28;20233;-78
2021/03/30 09:37:52;;;;;;;5.87;3.50;;;;;;;;;;5107459;28;20240;-78
2021/03/30 09:40:24;;;;;;;6.57;3.57;;;;;;;;;;5098926;28;20672;-80
2021/03/30 09:42:51;;;;;;;5.30;3.57;;;;;;;;;;5098893;28;20672;-78
2021/03/30 09:45:21;;;;;;;5.87;3.53;;;;;;;;;;5100231;28;20263;-79
2021/03/30 09:47:49;;;;;;;5.80;3.33;;;;;;;;;;5102871;28;20205;-80
2021/03/30 09:50:18;;;;;;;5.03;3.67;;;;;;;;;;5099194;28;20248;-79
2021/03/30 09:52:45;;;;;;;3.70;3.40;;;;;;;;;;5103135;28;20229;-80
2021/03/30 09:55:27;;;;;;;10.10;4.00;;;;;;;;;;5116717;28;20671;-80
2021/03/30 09:57:58;;;;;;;8.37;3.67;;;;;;;;;;5116775;28;20235;-78
2021/03/30 10:00:25;;;;;;;9.47;4.37;;;;;;;;;;5110448;28;20217;-78
2021/03/30 10:02:52;;;;;;;4.93;3.23;;;;;;;;;;5112291;28;20283;-79
2021/03/30 10:05:20;;;;;;;4.13;3.00;;;;;;;;;;5117614;28;20224;-78
2021/03/30 10:07:47;;;;;;;6.43;3.63;;;;;;;;;;5117424;28;20288;-78
2021/03/30 10:10:15;;;;;;;8.47;3.63;;;;;;;;;;5119171;28;20303;-77
2021/03/30 10:12:54;;;;;;;5.00;3.30;;;;;;;;;;5117398;28;20632;-80
2021/03/30 10:15:35;;;;;;;5.80;3.30;;;;;;;;;;5104579;28;20262;-79
2021/03/30 10:18:03;;;;;;;3.40;2.90;;;;;;;;;;5116547;28;20197;-80
2021/03/30 10:20:30;;;;;;;5.87;3.43;;;;;;;;;;5103241;28;20220;-80
2021/03/30 10:22:57;;;;;;;6.47;3.60;;;;;;;;;;5103425;28;20660;-80
2021/03/30 10:25:29;;;;;;;6.17;3.40;;;;;;;;;;5114072;28;20209;-81
2021/03/30 10:27:57;;;;;;;8.00;3.33;;;;;;;;;;5101867;28;20294;-80
2021/03/30 10:30:29;;;;;;;6.73;3.30;;;;;;;;;;5107073;27;20242;-80
2021/03/30 10:32:58;;;;;;;5.63;3.30;;;;;;;;;;5101942;28;20255;-79
2021/03/30 10:35:26;;;;;;;3.53;3.13;;;;;;;;;;5116729;28;20256;-80
2021/03/30 10:37:53;;;;;;;5.63;3.23;;;;;;;;;;5115629;28;20466;-78
2021/03/30 10:40:21;;;;;;;4.23;3.07;;;;;;;;;;5098500;28;20213;-79
2021/03/30 10:42:49;;;;;;;3.90;3.00;;;;;;;;;;5100849;28;20288;-78
2021/03/30 10:45:17;;;;;;;10.57;3.27;;;;;;;;;;5099702;28;21162;-76
2021/03/30 10:47:48;;;;;;;7.73;3.27;;;;;;;;;;5109332;28;20197;-77
2021/03/30 10:50:16;;;;;;;6.83;3.07;;;;;;;;;;5107164;28;20235;-74
2021/03/30 10:52:44;;;;;;;4.70;2.60;;;;;;;;;;5109573;28;20702;-75
2021/03/30 10:55:13;;;;;;;7.40;3.00;;;;;;;;;;5117363;28;20228;-75
2021/03/30 10:57:43;;;;;;;6.17;2.90;;;;;;;;;;5115822;28;20646;-76
2021/03/30 11:00:12;;;;;;;6.47;2.87;;;;;;;;;;5117688;28;20264;-75
2021/03/30 11:02:39;;;;;;;7.13;3.23;;;;;;;;;;5116633;28;20268;-75
2021/03/30 11:05:10;;;;;;;4.23;2.80;;;;;;;;;;5097922;28;20213;-76
2021/03/30 11:07:37;;;;;;;7.20;3.00;;;;;;;;;;5097326;28;20232;-76
2021/03/30 11:10:06;;;;;;;6.17;2.57;;;;;;;;;;5097816;28;20292;-75
2021/03/30 11:12:34;;;;;;;7.87;3.07;;;;;;;;;;5097368;28;20244;-75
2021/03/30 11:15:02;;;;;;;5.33;2.90;;;;;;;;;;5097232;28;20279;-76
2021/03/30 11:17:30;;;;;;;3.77;3.00;;;;;;;;;;5097300;28;20600;-76
2021/03/30 11:19:57;;;;;;;5.30;3.23;;;;;;;;;;5097832;28;20844;-76
2021/03/30 11:22:24;;;;;;;4.17;2.50;;;;;;;;;;5098118;28;20233;-77
2021/03/30 11:24:57;;;;;;;3.67;2.67;;;;;;;;;;5117721;28;20780;-76
2021/03/30 11:27:24;;;;;;;4.77;2.57;;;;;;;;;;5100343;28;20220;-75
2021/03/30 11:29:55;;;;;;;3.20;2.23;;;;;;;;;;5103941;28;20319;-75
2021/03/30 11:32:32;;;;;;;3.57;2.67;;;;;;;;;;5099668;28;20313;-75
2021/03/30 11:35:03;;;;;;;5.57;2.73;;;;;;;;;;5104850;28;20305;-75
2021/03/30 11:40:14;;;;;;;4.70;2.90;;;;;;;;;;5110449;28;20313;-76
2021/03/30 11:42:45;;;;;;;3.73;2.50;;;;;;;;;;5117363;28;20204;-77
2021/03/30 11:45:12;;;;;;;9.23;2.90;;;;;;;;;;5117622;28;20273;-75
2021/03/30 11:47:39;;;;;;;4.23;2.53;;;;;;;;;;5108061;28;20288;-74
2021/03/30 11:50:08;;;;;;;4.73;2.33;;;;;;;;;;5097137;28;20245;-75
2021/03/30 11:52:35;;;;;;;5.43;2.83;;;;;;;;;;5097239;28;20213;-77
2021/03/30 11:55:05;;;;;;;4.00;2.80;;;;;;;;;;5107670;28;20241;-74
2021/03/30 11:57:32;;;;;;;6.03;2.37;;;;;;;;;;5116835;28;20232;-75
2021/03/30 11:59:59;;;;;;;5.30;2.43;;;;;;;;;;5117198;28;20231;-75
2021/03/30 12:02:45;;;;;;;2.93;2.27;;;;;;;;;;5117678;28;20215;-73
2021/03/30 12:05:13;;;;;;;6.20;2.73;;;;;;;;;;5119703;28;20263;-75
2021/03/30 12:07:40;;;;;;;4.13;2.20;;;;;;;;;;5114708;28;20233;-74
2021/03/30 12:10:18;;;;;;;7.47;2.63;;;;;;;;;;5111428;28;20293;-74
2021/03/30 12:12:45;;;;;;;3.67;2.63;;;;;;;;;;5113715;28;20284;-75
2021/03/30 12:15:12;;;;;;;4.77;2.73;;;;;;;;;;5111424;28;20307;-75
2021/03/30 12:17:40;;;;;;;3.00;2.63;;;;;;;;;;5114417;28;20196;-75
2021/03/30 12:20:08;;;;;;;2.40;2.20;;;;;;;;;;5109385;28;20575;-73
2021/03/30 12:22:36;;;;;;;4.17;2.03;;;;;;;;;;5112164;28;20232;-70
2021/03/30 12:25:04;;;;;;;3.07;2.07;;;;;;;;;;5110720;28;20240;-73
2021/03/30 12:27:31;;;;;;;3.83;2.83;;;;;;;;;;5111890;28;20625;-73
2021/03/30 12:29:58;;;;;;;4.70;2.47;;;;;;;;;;5108176;28;20237;-73
2021/03/30 12:32:25;;;;;;;5.97;2.43;;;;;;;;;;5101099;28;20198;-74
2021/03/30 12:34:52;;;;;;;3.50;2.33;;;;;;;;;;5103582;28;20247;-73
2021/03/30 12:37:21;;;;;;;3.90;2.60;;;;;;;;;;5106515;28;20664;-73
2021/03/30 12:39:49;;;;;;;4.97;2.37;;;;;;;;;;5120582;28;20296;-73
2021/03/30 12:42:16;;;;;;;4.90;1.90;;;;;;;;;;5120289;28;20236;-73
2021/03/30 12:44:43;;;;;;;4.07;2.40;;;;;;;;;;5119795;28;20307;-74
2021/03/30 12:47:10;;;;;;;4.33;2.20;;;;;;;;;;5111853;28;20603;-73
2021/03/30 12:49:37;;;;;;;6.47;2.30;;;;;;;;;;5110210;28;20692;-73
2021/03/30 12:52:04;;;;;;;4.23;2.37;;;;;;;;;;5110935;28;20279;-73
2021/03/30 12:54:31;;;;;;;4.73;2.60;;;;;;;;;;5108295;28;20218;-73
2021/03/30 12:56:59;;;;;;;3.20;2.03;;;;;;;;;;5114635;28;20233;-73
2021/03/30 12:59:26;;;;;;;5.80;2.80;;;;;;;;;;5120545;28;20680;-75
2021/03/30 13:01:53;;;;;;;5.13;2.40;;;;;;;;;;5120374;28;20395;-73
2021/03/30 13:04:20;;;;;;;2.77;2.03;;;;;;;;;;5120211;28;20311;-74
2021/03/30 13:06:47;;;;;;;2.40;2.07;;;;;;;;;;5119653;28;20270;-73
2021/03/30 13:09:14;;;;;;;5.10;2.33;;;;;;;;;;5120460;28;20288;-74
2021/03/30 13:11:41;;;;;;;3.93;2.30;;;;;;;;;;5119807;28;20236;-73
2021/03/30 13:14:09;;;;;;;4.27;2.50;;;;;;;;;;5120232;28;20292;-74
2021/03/30 13:16:36;;;;;;;4.43;2.27;;;;;;;;;;5119259;28;20275;-74
2021/03/30 13:19:03;;;;;;;3.80;2.03;;;;;;;;;;5120231;28;20213;-74
2021/03/30 13:21:50;;;;;;;6.47;1.90;;;;;;;;;;5120120;28;20234;-74
2021/03/30 13:24:17;;;;;;;5.47;2.67;;;;;;;;;;5120060;28;20224;-73
2021/03/30 13:26:44;;;;;;;5.23;2.40;;;;;;;;;;5119225;28;20211;-74
2021/03/30 13:29:12;;;;;;;4.90;2.63;;;;;;;;;;5119540;28;20236;-73
2021/03/30 13:31:39;;;;;;;5.20;2.20;;;;;;;;;;5119965;28;20211;-73
2021/03/30 13:34:06;;;;;;;3.27;1.90;;;;;;;;;;5119570;28;20232;-74
2021/03/30 13:36:49;;;;;;;3.13;2.10;;;;;;;;;;5119506;28;20701;-74
2021/03/30 13:39:16;;;;;;;3.93;1.83;;;;;;;;;;5108175;28;20243;-74
2021/03/30 13:41:50;;;;;;;15.80;3.23;;;;;;;;;;5098763;28;20230;-74
2021/03/30 13:44:19;;;;;;;3.97;1.93;;;;;;;;;;5099431;28;20221;-74
2021/03/30 13:46:46;;;;;;;2.23;1.70;;;;;;;;;;5107076;28;20233;-75
2021/03/30 13:49:16;;;;;;;8.13;1.90;;;;;;;;;;5099187;28;20806;-73
2021/03/30 13:51:43;;;;;;;3.93;2.13;;;;;;;;;;5099302;28;20239;-73
2021/03/30 13:54:10;;;;;;;4.40;2.20;;;;;;;;;;5099123;28;20268;-74
2021/03/30 13:56:37;;;;;;;5.57;2.10;;;;;;;;;;5109743;28;20304;-73
2021/03/30 13:59:04;;;;;;;4.07;1.87;;;;;;;;;;5119150;28;20570;-74
2021/03/30 14:01:32;;;;;;;5.47;2.10;;;;;;;;;;5119211;28;20241;-74
2021/03/30 14:03:59;;;;;;;2.23;1.90;;;;;;;;;;5118928;28;20212;-74
2021/03/30 14:06:26;;;;;;;2.67;1.97;;;;;;;;;;5118784;28;20252;-74
2021/03/30 14:08:53;;;;;;;3.57;2.00;;;;;;;;;;5119200;28;20219;-73
2021/03/30 14:11:22;;;;;;;4.47;1.80;;;;;;;;;;5118850;28;20230;-73
2021/03/30 14:13:52;;;;;;;3.27;2.40;;;;;;;;;;5118739;28;20657;-73
2021/03/30 14:16:22;;;;;;;6.40;2.07;;;;;;;;;;5118956;28;20274;-74
2021/03/30 14:18:58;;;;;;;5.67;2.17;;;;;;;;;;5119283;28;20206;-73
2021/03/30 14:21:38;;;;;;;2.77;2.03;;;;;;;;;;5119012;28;20296;-73
2021/03/30 14:24:09;;;;;;;3.30;2.00;;;;;;;;;;5118531;28;20644;-73
2021/03/30 14:26:37;;;;;;;2.37;2.10;;;;;;;;;;5117763;28;20291;-73
2021/03/30 14:29:24;;;;;;;4.47;2.13;;;;;;;;;;5118153;28;20243;-73
2021/03/30 14:32:04;;;;;;;3.97;2.03;;;;;;;;;;5118599;28;20210;-73
2021/03/30 14:34:33;;;;;;;5.97;1.83;;;;;;;;;;5115083;28;20302;-73
2021/03/30 14:37:00;;;;;;;3.83;2.07;;;;;;;;;;5101156;28;20252;-73
2021/03/30 14:39:27;;;;;;;3.63;1.90;;;;;;;;;;5100581;28;20297;-73
2021/03/30 14:42:04;;;;;;;5.27;1.70;;;;;;;;;;5097941;28;20210;-73
2021/03/30 14:53:50;;;;;;;4.63;1.73;;;;;;;;;;5086486;28;20237;-74
2021/03/30 14:56:20;;;;;;;4.63;2.00;;;;;;;;;;5108169;28;20775;-74
2021/03/30 14:59:14;;;;;;;5.63;2.03;;;;;;;;;;5097800;28;20218;-74
2021/03/30 15:04:23;;;;;;;4.63;2.13;;;;;;;;;;5095780;28;20343;-74
2021/03/30 15:06:51;;;;;;;3.47;2.07;;;;;;;;;;5097671;28;20286;-74